Tortilla Flat, Arizona
Current Conditions -  °F | °C
As of 5:47 AM on Thursday 30 Oct 2014 (Local Time) from KIWA Reporting Station
Few Clouds Few Clouds  
Wind Chill: 57°   Ceiling: Unl
Heat Index: 57°   Visibility: 20mi
Dew Point: 39°   Wind: 6mph
Humidity: 51%   Direction: 60°ENE
Pressure: 30.03"   Gusts: NA
Location:  33.53°N, 111.39°W
Report Text: KIWA 301247Z 06005KT 20SM FEW250 14/04 A3003
Loading
Personal Weather Stations






























Interactive Weather Map
Tropical Storm Tracking
New forecast layout! Learn more

10-Day Weather Forecast

Advertisements
Track Severe Weather on mobile